createdAt,value
2018-02-17T00:00:35.526Z,36.93
2018-02-17T00:03:01.930Z,32.27
2018-02-17T00:05:28.349Z,26.50
2018-02-17T00:07:54.728Z,27.67
2018-02-17T00:10:21.101Z,32.47
2018-02-17T00:12:47.536Z,26.67
2018-02-17T00:15:13.905Z,22.80
2018-02-17T00:17:41.043Z,27.30
2018-02-17T00:20:07.447Z,18.70
2018-02-17T00:22:33.843Z,21.50
2018-02-17T00:25:00.244Z,18.77
2018-02-17T00:27:26.655Z,24.47
2018-02-17T00:29:53.063Z,17.63
2018-02-17T00:32:19.407Z,15.27
2018-02-17T00:34:45.799Z,20.83
2018-02-17T00:37:12.933Z,18.07
2018-02-17T00:39:39.295Z,20.37
2018-02-17T00:42:05.697Z,21.30
2018-02-17T00:44:32.071Z,17.97
2018-02-17T00:46:58.486Z,17.47
2018-02-17T00:49:25.610Z,21.20
2018-02-17T00:51:51.987Z,21.13
2018-02-17T00:54:18.338Z,24.43
2018-02-17T00:56:44.702Z,19.40
2018-02-17T00:59:11.140Z,19.20
2018-02-17T01:01:38.246Z,20.57
2018-02-17T01:04:04.660Z,17.77
2018-02-17T01:06:31.034Z,21.60
2018-02-17T01:08:57.424Z,17.47
2018-02-17T01:11:24.539Z,19.60
2018-02-17T01:13:50.911Z,15.67
2018-02-17T01:16:17.277Z,16.27
2018-02-17T01:18:43.650Z,21.00
2018-02-17T01:21:10.313Z,19.43
2018-02-17T01:23:36.686Z,16.07
2018-02-17T01:26:03.058Z,18.70
2018-02-17T01:28:30.211Z,18.50
2018-02-17T01:30:56.634Z,18.20
2018-02-17T01:33:23.124Z,17.50
2018-02-17T01:35:49.490Z,17.60
2018-02-17T01:38:15.849Z,24.97
2018-02-17T01:40:42.967Z,18.20
2018-02-17T01:43:09.334Z,20.07
2018-02-17T01:45:36.483Z,19.70
2018-02-17T01:48:03.620Z,19.03
2018-02-17T01:50:32.890Z,17.03
2018-02-17T01:52:59.299Z,20.75
2018-02-17T01:55:25.708Z,20.10
2018-02-17T01:57:52.114Z,19.40
2018-02-17T02:00:19.290Z,18.42
2018-02-17T02:02:45.707Z,19.27
2018-02-17T02:05:12.818Z,18.93
2018-02-17T02:07:39.216Z,17.67
2018-02-17T02:10:05.590Z,18.12
2018-02-17T02:12:31.965Z,17.25
2018-02-17T02:14:58.334Z,18.97
2018-02-17T02:17:24.750Z,18.30
2018-02-17T02:19:51.145Z,17.40
2018-02-17T02:22:18.671Z,17.97
2018-02-17T02:24:45.054Z,18.62
2018-02-17T02:27:11.504Z,18.00
2018-02-17T02:29:37.933Z,18.02
2018-02-17T02:32:04.306Z,19.67
2018-02-17T02:34:30.664Z,19.53
2018-02-17T02:36:57.767Z,21.35
2018-02-17T02:39:24.340Z,16.08
2018-02-17T02:41:50.714Z,24.67
2018-02-17T02:44:17.098Z,18.40
2018-02-17T02:46:43.517Z,21.58
2018-02-17T02:49:09.892Z,19.45
2018-02-17T02:51:36.269Z,18.25
2018-02-17T02:54:02.675Z,17.40
2018-02-17T02:56:29.054Z,15.90
2018-02-17T02:58:55.427Z,21.33
2018-02-17T03:01:21.797Z,17.63
2018-02-17T03:03:48.223Z,18.12
2018-02-17T03:06:14.600Z,16.95
2018-02-17T03:08:41.715Z,16.27
2018-02-17T03:11:08.087Z,19.27
2018-02-17T03:13:35.197Z,16.83
2018-02-17T03:16:02.732Z,17.87
2018-02-17T03:18:29.090Z,15.27
2018-02-17T03:20:55.494Z,17.45
2018-02-17T03:23:22.643Z,18.58
2018-02-17T03:25:49.060Z,18.15
2018-02-17T03:28:15.462Z,17.58
2018-02-17T03:30:42.596Z,15.90
2018-02-17T03:33:08.992Z,15.90
2018-02-17T03:35:35.354Z,15.63
2018-02-17T03:38:01.721Z,15.57
2018-02-17T03:40:28.109Z,14.80
2018-02-17T03:42:54.481Z,14.95
2018-02-17T03:45:21.566Z,16.95
2018-02-17T03:47:47.937Z,16.40
2018-02-17T03:50:14.308Z,16.77
2018-02-17T03:52:40.664Z,15.18
2018-02-17T03:55:07.049Z,15.35
2018-02-17T03:57:34.152Z,16.05
2018-02-17T04:00:00.501Z,17.87
2018-02-17T04:02:28.367Z,15.38
2018-02-17T04:04:54.756Z,17.83
2018-02-17T04:07:21.126Z,18.67
2018-02-17T04:09:47.523Z,16.83
2018-02-17T04:12:13.909Z,19.42
2018-02-17T04:14:41.015Z,18.58
2018-02-17T04:17:07.459Z,18.00
2018-02-17T04:19:33.823Z,18.87
2018-02-17T04:22:00.186Z,20.33
2018-02-17T04:24:26.572Z,19.42
2018-02-17T04:26:54.636Z,19.15
2018-02-17T04:29:21.080Z,17.52
2018-02-17T04:31:48.219Z,19.95
2018-02-17T04:34:15.350Z,18.50
2018-02-17T04:36:41.759Z,27.15
2018-02-17T04:39:08.154Z,19.75
2018-02-17T04:41:46.157Z,19.98
2018-02-17T04:44:29.203Z,22.98
2018-02-17T04:47:06.316Z,20.88
2018-02-17T04:49:33.508Z,20.62
2018-02-17T04:52:00.898Z,21.92
2018-02-17T04:54:40.219Z,16.90
2018-02-17T04:57:12.674Z,17.62
2018-02-17T04:59:53.625Z,19.40
2018-02-17T05:02:23.822Z,20.52
2018-02-17T05:04:54.322Z,21.35
2018-02-17T05:07:21.726Z,19.45
2018-02-17T05:09:49.031Z,18.55
2018-02-17T05:12:15.438Z,23.92
2018-02-17T05:14:58.298Z,20.10
2018-02-17T05:17:42.411Z,20.90
2018-02-17T05:20:14.746Z,19.17
2018-02-17T05:22:56.098Z,22.77
2018-02-17T05:25:28.519Z,20.75
2018-02-17T05:27:58.592Z,19.73
2018-02-17T05:30:45.825Z,23.05
2018-02-17T05:33:19.214Z,20.92
2018-02-17T05:35:45.613Z,22.50
2018-02-17T05:38:12.071Z,22.92
2018-02-17T05:40:41.410Z,22.20
2018-02-17T05:43:07.821Z,23.23
2018-02-17T05:45:38.168Z,21.92
2018-02-17T05:48:06.569Z,20.55
2018-02-17T05:50:33.918Z,22.85
2018-02-17T05:53:01.017Z,21.12
2018-02-17T05:55:27.374Z,21.67
2018-02-17T05:57:53.738Z,22.08
2018-02-17T06:00:20.118Z,21.50
2018-02-17T06:02:46.491Z,20.05
2018-02-17T06:05:13.640Z,19.93
2018-02-17T06:07:40.853Z,22.42
2018-02-17T06:10:07.255Z,20.20
2018-02-17T06:12:33.643Z,21.62
2018-02-17T06:15:00.743Z,18.15
2018-02-17T06:17:27.116Z,20.40
2018-02-17T06:19:53.484Z,20.20
2018-02-17T06:22:19.860Z,23.00
2018-02-17T06:24:46.255Z,20.55
2018-02-17T06:27:12.672Z,21.48
2018-02-17T06:29:39.051Z,21.50
2018-02-17T06:32:05.465Z,27.17
2018-02-17T06:34:31.892Z,24.08
2018-02-17T06:36:58.286Z,22.35
2018-02-17T06:39:25.552Z,25.00
2018-02-17T06:41:51.939Z,22.85
2018-02-17T06:44:18.327Z,22.67
2018-02-17T06:46:44.745Z,21.50
2018-02-17T06:49:11.126Z,21.45
2018-02-17T06:51:39.015Z,21.70
2018-02-17T06:54:06.131Z,21.33
2018-02-17T06:56:32.529Z,24.30
2018-02-17T06:58:58.928Z,21.70
2018-02-17T07:01:26.763Z,23.93
2018-02-17T07:03:53.164Z,19.13
2018-02-17T07:06:19.537Z,22.03
2018-02-17T07:08:45.919Z,28.30
2018-02-17T07:11:12.332Z,24.00
2018-02-17T07:13:38.805Z,19.50
2018-02-17T07:16:05.194Z,21.43
2018-02-17T07:18:32.308Z,25.43
2018-02-17T07:20:58.669Z,25.40
2018-02-17T07:23:25.790Z,23.23
2018-02-17T07:25:53.670Z,22.40
2018-02-17T07:28:20.068Z,21.50
2018-02-17T07:30:46.477Z,23.33
2018-02-17T07:33:12.851Z,22.70
2018-02-17T07:35:39.281Z,24.93
2018-02-17T07:38:05.672Z,27.00
2018-02-17T07:40:32.187Z,25.37
2018-02-17T07:42:59.306Z,24.45
2018-02-17T07:45:27.349Z,25.57
2018-02-17T07:47:53.745Z,24.37
2018-02-17T07:50:20.879Z,31.20
2018-02-17T07:52:48.056Z,23.33
2018-02-17T07:55:14.502Z,24.65
2018-02-17T07:57:40.875Z,25.37
2018-02-17T08:00:07.278Z,21.30
2018-02-17T08:02:33.673Z,23.57
2018-02-17T08:05:00.810Z,21.73
2018-02-17T08:07:27.921Z,21.63
2018-02-17T08:09:56.558Z,21.33
2018-02-17T08:12:23.666Z,21.10
2018-02-17T08:14:50.068Z,22.77
2018-02-17T08:17:16.506Z,22.13
2018-02-17T08:19:42.896Z,23.87
2018-02-17T08:22:09.998Z,27.37
2018-02-17T08:24:36.395Z,28.60
2018-02-17T08:27:02.765Z,22.90
2018-02-17T08:29:29.168Z,54.63
2018-02-17T08:31:55.558Z,34.10
2018-02-17T08:34:21.916Z,47.33
2018-02-17T08:36:49.018Z,23.93
2018-02-17T08:39:15.378Z,22.67
2018-02-17T08:41:42.669Z,24.20
2018-02-17T08:44:09.046Z,23.07
2018-02-17T08:46:35.430Z,22.50
2018-02-17T08:49:01.852Z,24.23
2018-02-17T08:51:28.264Z,24.37
2018-02-17T08:53:55.359Z,25.20
2018-02-17T08:56:21.855Z,24.10
2018-02-17T08:58:48.990Z,25.57
2018-02-17T09:01:16.119Z,25.57
2018-02-17T09:03:42.473Z,22.60
2018-02-17T09:06:09.587Z,27.27
2018-02-17T09:08:36.128Z,26.30
2018-02-17T09:11:02.492Z,21.83
2018-02-17T09:13:29.696Z,26.67
2018-02-17T09:15:56.150Z,25.60
2018-02-17T09:18:22.526Z,23.70
2018-02-17T09:20:48.906Z,26.03
2018-02-17T09:23:15.301Z,25.77
2018-02-17T09:25:41.702Z,26.60
2018-02-17T09:28:08.805Z,33.50
2018-02-17T09:30:35.201Z,25.57
2018-02-17T09:33:01.664Z,26.57
2018-02-17T09:35:28.079Z,45.70
2018-02-17T09:37:55.447Z,30.50
2018-02-17T09:40:21.835Z,37.23
2018-02-17T09:42:48.415Z,54.57
2018-02-17T09:45:14.788Z,39.80
2018-02-17T09:47:41.939Z,51.50
2018-02-17T09:50:08.322Z,35.80
2018-02-17T09:52:34.755Z,57.23
2018-02-17T09:55:01.124Z,79.63
2018-02-17T09:57:27.509Z,51.97
2018-02-17T09:59:53.884Z,47.17
2018-02-17T10:02:20.352Z,66.23
2018-02-17T10:04:46.765Z,32.95
2018-02-17T10:07:13.144Z,53.73
2018-02-17T10:09:39.542Z,36.90
2018-02-17T10:12:06.664Z,35.50
2018-02-17T10:14:33.020Z,33.50
2018-02-17T10:17:00.464Z,50.47
2018-02-17T10:19:26.839Z,31.10
2018-02-17T10:21:53.198Z,32.77
2018-02-17T10:24:19.607Z,33.10
2018-02-17T10:26:45.991Z,31.90
2018-02-17T10:29:12.376Z,32.77
2018-02-17T10:31:38.760Z,33.07
2018-02-17T10:34:05.141Z,33.20
2018-02-17T10:36:31.525Z,32.33
2018-02-17T10:38:58.664Z,33.63
2018-02-17T10:41:25.308Z,37.03
2018-02-17T10:43:52.437Z,27.55
2018-02-17T10:46:18.820Z,32.37
2018-02-17T10:48:45.203Z,29.23
2018-02-17T10:51:12.351Z,26.07
2018-02-17T10:53:38.753Z,27.40
2018-02-17T10:56:05.131Z,28.10
2018-02-17T10:58:31.510Z,27.03
2018-02-17T11:00:57.903Z,34.03
2018-02-17T11:03:25.665Z,30.97
2018-02-17T11:05:52.781Z,34.70
2018-02-17T11:08:19.146Z,36.43
2018-02-17T11:10:46.259Z,30.57
2018-02-17T11:13:12.620Z,30.37
2018-02-17T11:15:39.763Z,29.17
2018-02-17T11:18:06.920Z,26.77
2018-02-17T11:20:33.337Z,25.47
2018-02-17T11:22:59.795Z,29.48
2018-02-17T11:25:26.149Z,32.43
2018-02-17T11:27:52.584Z,34.37
2018-02-17T11:30:18.986Z,27.70
2018-02-17T11:32:46.137Z,42.62
2018-02-17T11:35:12.548Z,30.08
2018-02-17T11:37:38.923Z,28.47
2018-02-17T11:40:05.356Z,28.52
2018-02-17T11:42:32.464Z,33.67
2018-02-17T11:45:00.341Z,32.67
2018-02-17T11:47:26.711Z,33.45
2018-02-17T11:49:53.085Z,32.10
2018-02-17T11:52:19.449Z,30.40
2018-02-17T11:54:46.560Z,29.10
2018-02-17T11:57:13.035Z,36.73
2018-02-17T11:59:39.458Z,35.40
2018-02-17T12:02:06.574Z,31.60
2018-02-17T12:04:33.069Z,28.48
2018-02-17T12:07:00.252Z,25.33
2018-02-17T12:09:26.647Z,30.90
2018-02-17T12:11:53.054Z,26.48
2018-02-17T12:14:20.183Z,26.00
2018-02-17T12:16:46.577Z,28.03
2018-02-17T12:19:12.978Z,26.30
2018-02-17T12:21:40.106Z,31.07
2018-02-17T12:24:07.994Z,29.47
2018-02-17T12:26:34.374Z,49.63
2018-02-17T12:29:00.783Z,56.95
2018-02-17T12:31:27.190Z,41.47
2018-02-17T12:33:54.326Z,31.23
2018-02-17T12:36:21.427Z,32.30
2018-02-17T12:38:47.840Z,29.52
2018-02-17T12:41:14.259Z,32.27
2018-02-17T12:43:40.674Z,30.90
2018-02-17T12:46:07.791Z,33.10
2018-02-17T12:48:34.185Z,37.20
2018-02-17T12:51:01.345Z,31.90
2018-02-17T12:53:27.725Z,33.30
2018-02-17T12:55:54.090Z,30.33
2018-02-17T12:58:20.472Z,34.33
2018-02-17T13:00:46.871Z,32.57
2018-02-17T13:03:13.256Z,40.65
2018-02-17T13:05:39.830Z,35.67
2018-02-17T13:08:06.250Z,32.57
2018-02-17T13:10:32.662Z,34.70
2018-02-17T13:12:59.803Z,34.63
2018-02-17T13:15:26.915Z,65.72
2018-02-17T13:17:54.066Z,41.47
2018-02-17T13:20:20.469Z,41.77
2018-02-17T13:22:46.844Z,40.63
2018-02-17T13:25:13.296Z,40.47
2018-02-17T13:27:40.426Z,38.70
2018-02-17T13:30:08.880Z,39.05
2018-02-17T13:32:35.333Z,42.62
2018-02-17T13:35:02.767Z,42.27
2018-02-17T13:37:29.157Z,41.90
2018-02-17T13:39:56.268Z,40.00
2018-02-17T13:42:22.639Z,41.67
2018-02-17T13:44:49.037Z,40.63
2018-02-17T13:47:15.462Z,38.93
2018-02-17T13:49:41.831Z,45.77
2018-02-17T13:52:08.216Z,42.07
2018-02-17T13:54:34.619Z,46.87
2018-02-17T13:57:01.041Z,44.90
2018-02-17T13:59:28.197Z,46.93
2018-02-17T14:01:54.614Z,44.87
2018-02-17T14:04:20.991Z,43.17
2018-02-17T14:06:47.377Z,48.60
2018-02-17T14:09:13.990Z,42.70
2018-02-17T14:11:40.372Z,44.70
2018-02-17T14:14:07.532Z,46.53
2018-02-17T14:16:33.969Z,46.40
2018-02-17T14:19:01.621Z,48.43
2018-02-17T14:21:27.993Z,48.15
2018-02-17T14:23:54.399Z,46.97
2018-02-17T14:26:20.762Z,47.07
2018-02-17T14:28:47.127Z,51.28
2018-02-17T14:31:14.268Z,48.58
2018-02-17T14:33:41.391Z,48.17
2018-02-17T14:36:07.854Z,48.50
2018-02-17T14:38:34.970Z,47.00
2018-02-17T14:41:02.099Z,50.37
2018-02-17T14:43:28.476Z,43.50
2018-02-17T14:45:55.619Z,45.93
2018-02-17T14:48:22.031Z,47.67
2018-02-17T14:50:48.400Z,46.15
2018-02-17T14:53:15.515Z,40.97
2018-02-17T14:55:42.042Z,41.88
2018-02-17T14:58:08.460Z,41.33
2018-02-17T15:00:34.831Z,39.20
2018-02-17T15:03:01.944Z,41.03
2018-02-17T15:05:28.353Z,36.50
2018-02-17T15:07:54.743Z,40.70
2018-02-17T15:10:21.128Z,51.20
2018-02-17T15:12:47.549Z,37.10
2018-02-17T15:15:13.914Z,46.33
2018-02-17T15:17:40.303Z,40.13
2018-02-17T15:20:06.736Z,35.20
2018-02-17T15:22:33.123Z,34.47
2018-02-17T15:24:59.488Z,39.53
2018-02-17T15:27:26.603Z,39.20
2018-02-17T15:29:52.999Z,37.03
2018-02-17T15:32:19.392Z,38.33
2018-02-17T15:34:46.491Z,36.70
2018-02-17T15:37:12.842Z,34.47
2018-02-17T15:39:39.222Z,33.00
2018-02-17T15:42:05.584Z,33.73
2018-02-17T15:44:31.995Z,37.57
2018-02-17T15:46:59.018Z,38.07
2018-02-17T15:49:26.186Z,32.63
2018-02-17T15:51:52.578Z,35.57
2018-02-17T15:54:19.686Z,40.33
2018-02-17T15:56:46.035Z,36.70
2018-02-17T15:59:12.496Z,32.53
2018-02-17T16:01:39.616Z,31.80
2018-02-17T16:04:05.980Z,32.10
2018-02-17T16:06:32.343Z,35.77
2018-02-17T16:08:58.780Z,35.07
2018-02-17T16:11:25.189Z,35.67
2018-02-17T16:13:51.618Z,38.88
2018-02-17T16:16:18.749Z,33.70
2018-02-17T16:18:45.109Z,32.27
2018-02-17T16:21:11.507Z,35.73
2018-02-17T16:23:37.910Z,34.65
2018-02-17T16:26:04.323Z,35.17
2018-02-17T16:28:30.686Z,35.13
2018-02-17T16:30:57.066Z,34.90
2018-02-17T16:33:23.489Z,36.20
2018-02-17T16:35:50.608Z,35.40
2018-02-17T16:38:16.963Z,35.63
2018-02-17T16:40:44.086Z,39.58
2018-02-17T16:43:10.465Z,36.00
2018-02-17T16:45:36.839Z,34.20
2018-02-17T16:48:03.259Z,36.65
2018-02-17T16:50:29.634Z,34.65
2018-02-17T16:52:56.815Z,31.75
2018-02-17T16:55:23.203Z,34.40
2018-02-17T16:57:50.331Z,32.55
2018-02-17T17:00:16.784Z,38.63
2018-02-17T17:02:43.126Z,29.67
2018-02-17T17:05:09.490Z,33.70
2018-02-17T17:07:35.914Z,28.87
2018-02-17T17:10:02.587Z,30.47
2018-02-17T17:12:28.969Z,31.43
2018-02-17T17:14:56.075Z,30.40
2018-02-17T17:17:22.456Z,31.97
2018-02-17T17:19:49.656Z,32.72
2018-02-17T17:22:16.025Z,31.10
2018-02-17T17:24:42.460Z,32.65
2018-02-17T17:27:09.635Z,30.98
2018-02-17T17:29:36.100Z,32.07
2018-02-17T17:32:02.535Z,31.30
2018-02-17T17:34:28.944Z,32.25
2018-02-17T17:36:55.387Z,30.52
2018-02-17T17:39:21.843Z,34.47
2018-02-17T17:41:48.257Z,31.45
2018-02-17T17:44:14.735Z,34.33
2018-02-17T17:46:41.190Z,34.70
2018-02-17T17:49:07.609Z,30.75
2018-02-17T17:51:34.723Z,35.85
2018-02-17T17:54:01.990Z,35.60
2018-02-17T17:56:28.404Z,35.05
2018-02-17T17:58:54.879Z,35.00
2018-02-17T18:01:21.287Z,35.13
2018-02-17T18:03:47.675Z,35.00
2018-02-17T18:06:14.063Z,34.92
2018-02-17T18:08:41.242Z,37.22
2018-02-17T18:11:07.682Z,38.17
2018-02-17T18:13:34.062Z,33.15
2018-02-17T18:16:01.399Z,34.53
2018-02-17T18:18:27.823Z,36.13
2018-02-17T18:20:54.229Z,35.22
2018-02-17T18:23:20.660Z,33.87
2018-02-17T18:25:47.051Z,34.73
2018-02-17T18:28:13.430Z,37.73
2018-02-17T18:30:39.874Z,34.42
2018-02-17T18:33:06.311Z,35.05
2018-02-17T18:35:32.690Z,36.08
2018-02-17T18:37:59.883Z,38.05
2018-02-17T18:40:26.234Z,38.30
2018-02-17T18:42:52.617Z,36.00
2018-02-17T18:45:19.207Z,35.55
2018-02-17T18:47:45.614Z,38.23
2018-02-17T18:50:11.979Z,35.40
2018-02-17T18:52:38.343Z,35.47
2018-02-17T18:55:05.515Z,35.53
2018-02-17T18:57:32.632Z,33.10
2018-02-17T18:59:59.046Z,35.47
2018-02-17T19:02:25.445Z,37.00
2018-02-17T19:04:51.937Z,34.75
2018-02-17T19:07:18.294Z,33.88
2018-02-17T19:09:44.732Z,33.60
2018-02-17T19:12:11.126Z,32.80
2018-02-17T19:14:37.749Z,32.53
2018-02-17T19:17:04.204Z,31.77
2018-02-17T19:19:31.358Z,30.67
2018-02-17T19:21:58.498Z,30.60
2018-02-17T19:24:24.867Z,31.60
2018-02-17T19:26:51.242Z,31.13
2018-02-17T19:29:17.639Z,30.20
2018-02-17T19:31:43.990Z,29.37
2018-02-17T19:34:10.432Z,29.63
2018-02-17T19:36:36.823Z,28.30
2018-02-17T19:39:03.287Z,29.13
2018-02-17T19:41:29.653Z,28.63
2018-02-17T19:43:57.514Z,26.07
2018-02-17T19:46:23.900Z,28.77
2018-02-17T19:48:50.271Z,28.77
2018-02-17T19:51:16.683Z,30.20
2018-02-17T19:53:43.246Z,31.50
2018-02-17T19:56:09.660Z,30.00
2018-02-17T19:58:36.054Z,31.70
2018-02-17T20:01:02.429Z,31.30
2018-02-17T20:03:28.830Z,28.80
2018-02-17T20:05:55.210Z,30.00
2018-02-17T20:08:21.675Z,31.73
2018-02-17T20:10:48.137Z,28.03
2018-02-17T20:13:14.574Z,27.75
2018-02-17T20:15:40.973Z,28.55
2018-02-17T20:18:07.503Z,28.00
2018-02-17T20:20:34.622Z,26.97
2018-02-17T20:23:00.986Z,26.50
2018-02-17T20:25:27.352Z,30.20
2018-02-17T20:27:53.929Z,27.90
2018-02-17T20:30:21.082Z,24.97
2018-02-17T20:32:47.439Z,27.45
2018-02-17T20:35:13.940Z,27.20
2018-02-17T20:37:40.324Z,25.87
2018-02-17T20:40:06.778Z,26.00
2018-02-17T20:42:33.167Z,26.13
2018-02-17T20:44:59.569Z,26.57
2018-02-17T20:47:26.686Z,25.80
2018-02-17T20:49:53.066Z,27.37
2018-02-17T20:52:20.174Z,26.47
2018-02-17T20:54:46.538Z,27.20
2018-02-17T20:57:13.660Z,27.30
2018-02-17T20:59:40.114Z,25.80
2018-02-17T21:02:06.517Z,24.67
2018-02-17T21:04:32.931Z,24.27
2018-02-17T21:06:59.301Z,26.20
2018-02-17T21:09:25.678Z,25.80
2018-02-17T21:11:52.084Z,25.47
2018-02-17T21:14:19.265Z,25.57
2018-02-17T21:16:45.643Z,23.87
2018-02-17T21:19:12.022Z,23.03
2018-02-17T21:21:38.376Z,22.63
2018-02-17T21:24:04.726Z,23.57
2018-02-17T21:26:31.079Z,23.37
2018-02-17T21:28:58.965Z,23.57
2018-02-17T21:31:25.311Z,21.93
2018-02-17T21:33:51.670Z,23.13
2018-02-17T21:36:18.072Z,24.90
2018-02-17T21:38:45.186Z,26.27
2018-02-17T21:41:11.555Z,24.73
2018-02-17T21:43:37.956Z,25.47
2018-02-17T21:46:04.310Z,25.17
2018-02-17T21:48:30.668Z,25.30
2018-02-17T21:50:57.039Z,21.47
2018-02-17T21:53:23.400Z,25.53
2018-02-17T21:55:50.505Z,23.87
2018-02-17T21:58:16.866Z,24.17
2018-02-17T22:00:43.263Z,24.47
2018-02-17T22:03:09.618Z,21.80
2018-02-17T22:05:35.980Z,22.50
2018-02-17T22:08:02.334Z,25.20
2018-02-17T22:10:28.719Z,25.57
2018-02-17T22:12:55.092Z,23.23
2018-02-17T22:15:21.453Z,25.30
2018-02-17T22:17:47.839Z,29.87
2018-02-17T22:20:14.210Z,26.03
2018-02-17T22:22:40.591Z,26.67
2018-02-17T22:25:07.697Z,23.90
2018-02-17T22:27:34.116Z,27.37
2018-02-17T22:30:00.475Z,26.37
2018-02-17T22:32:26.881Z,29.60
2018-02-17T22:34:53.235Z,28.37
2018-02-17T22:37:19.603Z,29.03
2018-02-17T22:39:45.986Z,26.40
2018-02-17T22:42:12.371Z,25.30
2018-02-17T22:44:38.730Z,26.77
2018-02-17T22:47:05.094Z,26.53
2018-02-17T22:49:31.456Z,25.90
2018-02-17T22:51:57.835Z,24.70
2018-02-17T22:54:24.195Z,24.80
2018-02-17T22:56:51.317Z,23.27
2018-02-17T22:59:17.703Z,26.60
2018-02-17T23:01:44.807Z,26.97
2018-02-17T23:04:11.187Z,25.20
2018-02-17T23:06:37.554Z,23.57
2018-02-17T23:09:03.951Z,25.40
2018-02-17T23:11:30.307Z,23.03
2018-02-17T23:13:56.686Z,22.90
2018-02-17T23:16:23.070Z,23.57
2018-02-17T23:18:49.444Z,23.50
2018-02-17T23:21:15.822Z,26.23
2018-02-17T23:23:42.209Z,26.17
2018-02-17T23:26:08.583Z,26.00
2018-02-17T23:28:34.986Z,26.80
2018-02-17T23:31:02.091Z,24.20
2018-02-17T23:33:28.469Z,24.40
2018-02-17T23:35:55.579Z,23.57
2018-02-17T23:38:21.996Z,25.07
2018-02-17T23:40:48.368Z,24.93
2018-02-17T23:43:14.732Z,25.97
2018-02-17T23:45:41.080Z,27.50
2018-02-17T23:48:07.488Z,25.47
2018-02-17T23:50:33.866Z,26.10
2018-02-17T23:53:00.210Z,26.20
2018-02-17T23:55:26.614Z,27.70
2018-02-17T23:57:52.987Z,28.10
